Main page
METAR-TAF:

METAR-TAF

Airports :

Bodø Airport

Bodø, Norway

latitude: 67-16N, longitude: 014-22E, elevation: 1 m

Current weather observation

The report was made 22 minutes ago, at 22:20 UTC
Wind 7 kt from the Northwest, varying between West and North
Temperature 13°C
Humidity 82%
Pressure 997 hPa
Visibility 10 km or more
Few clouds at a height of 800 ft
Broken clouds at a height of 2000 ft

METAR: ENBO 302220Z 32007KT 280V350 9999 FEW008 BKN020 13/10 Q0997

Time: 00:42 (22:42 UTC)

Forecast

Forecast valid from 30 at 20 UTC to 31 at 18 UTC
Wind 9 kt from the North/Northwest
Visibility 10 km or more
Broken clouds at a height of 4000 ft
Temporary
from 30 at 20 UTC to 31 at 01 UTC
Broken clouds at a height of 1400 ft
rain showers
Temporary
from 31 at 01 UTC to 31 at 14 UTC
Visibility: 4000 m
Scattered clouds at a height of 800 ft
Broken clouds at a height of 1200 ft
drizzle, rain

TAF: ENBO 3020/3118 33009KT 9999 BKN040 TEMPO 3020/3101 SHRA BKN014 TEMPO 3101/3114 4000 DZRA SCT008 BKN012

Weather observations and forecasts of more than 4000 airports (METAR and TAF reports).

The available stations are represented by yellow and red dots on the map.

Hover mouse over dot to see the name of the station.

Then click to see weather observations and forecasts.

To change the map : click on the green buttons with a black cross to zoom in, on the green button with a dash to zoom out, or on the green arrows for adjacent maps.


METAR-TAF: